Time;durP1;ratioP1;P1;durP2;ratioP2;P2;SDS_P1;SDS_P2;PMS_P1;PMS_P2;Temp;Humidity;BMP_temperature;BMP_pressure;BME280_temperature;BME280_humidity;BME280_pressure;Samples;Min_cycle;Max_cycle;Signal;HPM_P1;HPM_P2
2021/01/25 00:01:20;;;;;;;;;;;;;;;;;;4987823;28;20088;-87
2021/01/25 00:03:47;;;;;;;;;;;;;;;;;;4987203;28;19937;-87
2021/01/25 00:06:14;;;;;;;;;;;;;;;;;;4987797;28;19930;-87
2021/01/25 00:08:42;;;;;;;;;;;;;;;;;;4987156;28;20117;-87
2021/01/25 00:11:09;;;;;;;;;;;;;;;;;;4987321;28;19952;-87
2021/01/25 00:13:36;;;;;;;;;;;;;;;;;;4987455;28;19940;-87
2021/01/25 00:16:04;;;;;;;;;;;;;;;;;;4988890;28;19961;-87
2021/01/25 00:18:31;;;;;;;;;;;;;;;;;;4987833;28;20080;-87
2021/01/25 00:20:58;;;;;;;;;;;;;;;;;;4971060;28;19932;-86
2021/01/25 00:23:25;;;;;;;;;;;;;;;;;;4971407;28;19985;-86
2021/01/25 00:25:52;;;;;;;;;;;;;;;;;;5003652;28;19949;-87
2021/01/25 00:28:19;;;;;;;;;;;;;;;;;;4985158;28;20028;-87
2021/01/25 00:30:47;;;;;;;;;;;;;;;;;;4985665;28;20846;-87
2021/01/25 00:33:14;;;;;;;;;;;;;;;;;;4985718;28;20033;-87
2021/01/25 00:35:41;;;;;;;;;;;;;;;;;;4986610;28;19930;-87
2021/01/25 00:38:10;;;;;;;;;;;;;;;;;;4988163;28;19930;-87
2021/01/25 00:40:37;;;;;;;;;;;;;;;;;;4989682;28;20227;-87
2021/01/25 00:43:04;;;;;;;;;;;;;;;;;;4988929;28;19925;-87
2021/01/25 00:45:32;;;;;;;;;;;;;;;;;;4989569;28;20029;-87
2021/01/25 00:47:59;;;;;;;;;;;;;;;;;;4989459;28;19929;-88
2021/01/25 00:50:26;;;;;;;;;;;;;;;;;;4988868;28;20000;-87
2021/01/25 00:52:53;;;;;;;;;;;;;;;;;;4990838;28;20040;-87
2021/01/25 00:55:20;;;;;;;;;;;;;;;;;;4989262;28;20028;-87
2021/01/25 00:57:47;;;;;;;;;;;;;;;;;;4989419;28;20048;-87
2021/01/25 01:00:14;;;;;;;;;;;;;;;;;;4988811;28;20418;-87
2021/01/25 01:02:41;;;;;;;;;;;;;;;;;;4989767;28;20024;-87
2021/01/25 01:05:09;;;;;;;;;;;;;;;;;;4988744;28;19926;-87
2021/01/25 01:07:36;;;;;;;;;;;;;;;;;;4989710;28;19949;-87
2021/01/25 01:10:03;;;;;;;;;;;;;;;;;;4987966;28;20036;-87
2021/01/25 01:12:31;;;;;;;;;;;;;;;;;;4989815;28;20112;-87
2021/01/25 01:14:58;;;;;;;;;;;;;;;;;;4989399;28;19976;-87
2021/01/25 01:17:25;;;;;;;;;;;;;;;;;;4990625;28;19930;-87
2021/01/25 01:19:52;;;;;;;;;;;;;;;;;;4994576;28;19933;-87
2021/01/25 01:22:20;;;;;;;;;;;;;;;;;;4997991;28;19957;-87
2021/01/25 01:24:47;;;;;;;;;;;;;;;;;;5001056;28;19930;-86
2021/01/25 01:27:14;;;;;;;;;;;;;;;;;;5002576;28;19925;-87
2021/01/25 01:29:41;;;;;;;;;;;;;;;;;;4988525;28;19933;-87
2021/01/25 01:32:08;;;;;;;;;;;;;;;;;;4970606;28;19930;-87
2021/01/25 01:34:35;;;;;;;;;;;;;;;;;;4987668;28;20285;-87
2021/01/25 01:37:02;;;;;;;;;;;;;;;;;;4988242;28;20013;-88
2021/01/25 01:39:29;;;;;;;;;;;;;;;;;;4987679;28;19987;-87
2021/01/25 01:41:57;;;;;;;;;;;;;;;;;;4988647;28;20028;-87
2021/01/25 01:44:24;;;;;;;;;;;;;;;;;;4987884;28;20296;-87
2021/01/25 01:46:51;;;;;;;;;;;;;;;;;;4988274;28;19930;-87
2021/01/25 01:49:18;;;;;;;;;;;;;;;;;;4987625;28;19930;-87
2021/01/25 01:51:45;;;;;;;;;;;;;;;;;;4988701;28;19976;-87
2021/01/25 01:54:12;;;;;;;;;;;;;;;;;;4988608;28;19929;-87
2021/01/25 01:56:39;;;;;;;;;;;;;;;;;;4980665;28;20437;-87
2021/01/25 01:59:06;;;;;;;;;;;;;;;;;;4990296;28;19926;-87
2021/01/25 02:04:06;;;;;;;;;;;;;;;;;;4909076;29;20303;-68
2021/01/25 02:06:34;;;;;;;;;;;;;;;;;;4917042;29;20034;-67
2021/01/25 02:09:01;;;;;;;;;;;;;;;;;;4919548;29;19934;-68
2021/01/25 02:11:28;;;;;;;;;;;;;;;;;;4914680;29;19931;-68
2021/01/25 02:13:55;;;;;;;;;;;;;;;;;;4908113;29;20465;-68
2021/01/25 02:16:32;;;;;;;;;;;;;;;;;;4916136;29;19931;-68
2021/01/25 02:18:59;;;;;;;;;;;;;;;;;;4916077;29;20407;-68
2021/01/25 02:21:26;;;;;;;;;;;;;;;;;;4916903;29;19935;-67
2021/01/25 02:23:56;;;;;;;;;;;;;;;;;;4929652;29;20282;-68
2021/01/25 02:26:23;;;;;;;;;;;;;;;;;;4926377;29;19993;-68
2021/01/25 02:28:50;;;;;;;;;;;;;;;;;;4915790;29;20018;-67
2021/01/25 02:31:17;;;;;;;;;;;;;;;;;;4916717;29;20025;-68
2021/01/25 02:33:44;;;;;;;;;;;;;;;;;;4915999;29;20586;-67
2021/01/25 02:36:12;;;;;;;;;;;;;;;;;;4916150;29;20042;-67
2021/01/25 02:38:40;;;;;;;;;;;;;;;;;;4915701;29;19931;-68
2021/01/25 02:41:07;;;;;;;;;;;;;;;;;;4916406;29;20372;-67
2021/01/25 02:43:35;;;;;;;;;;;;;;;;;;4915625;29;19931;-66
2021/01/25 02:46:02;;;;;;;;;;;;;;;;;;4915271;29;19927;-67
2021/01/25 02:48:29;;;;;;;;;;;;;;;;;;4914602;29;19937;-67
2021/01/25 02:50:56;;;;;;;;;;;;;;;;;;4915894;29;20033;-67
2021/01/25 02:53:24;;;;;;;;;;;;;;;;;;4915411;29;20390;-67
2021/01/25 02:55:51;;;;;;;;;;;;;;;;;;4915205;29;19975;-67
2021/01/25 02:58:18;;;;;;;;;;;;;;;;;;4915208;29;20029;-67
2021/01/25 03:00:46;;;;;;;;;;;;;;;;;;4913523;29;19927;-67
2021/01/25 03:03:13;;;;;;;;;;;;;;;;;;4913884;29;20023;-67
2021/01/25 03:05:40;;;;;;;;;;;;;;;;;;4914991;29;20006;-67
2021/01/25 03:08:07;;;;;;;;;;;;;;;;;;4914520;29;20021;-67
2021/01/25 03:10:34;;;;;;;;;;;;;;;;;;4917426;29;20023;-68
2021/01/25 03:13:02;;;;;;;;;;;;;;;;;;4909450;29;19982;-67
2021/01/25 03:15:29;;;;;;;;;;;;;;;;;;4915681;29;20305;-67
2021/01/25 03:17:56;;;;;;;;;;;;;;;;;;4915318;29;19927;-67
2021/01/25 03:20:23;;;;;;;;;;;;;;;;;;4913236;29;19927;-67
2021/01/25 03:22:51;;;;;;;;;;;;;;;;;;4922833;29;20424;-68
2021/01/25 03:25:18;;;;;;;;;;;;;;;;;;4915531;29;19935;-68
2021/01/25 03:27:45;;;;;;;;;;;;;;;;;;4915572;29;19937;-67
2021/01/25 03:30:13;;;;;;;;;;;;;;;;;;4914064;29;19931;-68
2021/01/25 03:32:41;;;;;;;;;;;;;;;;;;4914687;29;20347;-67
2021/01/25 03:35:09;;;;;;;;;;;;;;;;;;4913349;29;20040;-67
2021/01/25 03:37:36;;;;;;;;;;;;;;;;;;4914993;29;20022;-68
2021/01/25 03:40:03;;;;;;;;;;;;;;;;;;4913609;29;19970;-68
2021/01/25 03:42:31;;;;;;;;;;;;;;;;;;4915244;29;19986;-67
2021/01/25 03:44:58;;;;;;;;;;;;;;;;;;4914201;29;20298;-68
2021/01/25 03:47:26;;;;;;;;;;;;;;;;;;4915354;29;20364;-67
2021/01/25 03:49:53;;;;;;;;;;;;;;;;;;4913937;29;19964;-67
2021/01/25 03:52:20;;;;;;;;;;;;;;;;;;4914940;29;19974;-67
2021/01/25 03:54:48;;;;;;;;;;;;;;;;;;4914014;29;19931;-66
2021/01/25 03:57:15;;;;;;;;;;;;;;;;;;4914839;29;20018;-67
2021/01/25 03:59:42;;;;;;;;;;;;;;;;;;4912512;29;19962;-66
2021/01/25 04:02:10;;;;;;;;;;;;;;;;;;4915303;29;19974;-68
2021/01/25 04:04:37;;;;;;;;;;;;;;;;;;4914105;29;20374;-66
2021/01/25 04:07:05;;;;;;;;;;;;;;;;;;4896395;29;20325;-68
2021/01/25 04:09:32;;;;;;;;;;;;;;;;;;4901369;29;19931;-66
2021/01/25 04:11:59;;;;;;;;;;;;;;;;;;4913254;29;20434;-67
2021/01/25 04:14:27;;;;;;;;;;;;;;;;;;4915106;29;19942;-68
2021/01/25 04:16:54;;;;;;;;;;;;;;;;;;4914996;29;20002;-67
2021/01/25 04:19:21;;;;;;;;;;;;;;;;;;4917601;29;20288;-67
2021/01/25 04:21:48;;;;;;;;;;;;;;;;;;4918669;29;20378;-67
2021/01/25 04:24:15;;;;;;;;;;;;;;;;;;4925035;29;20014;-67
2021/01/25 04:26:43;;;;;;;;;;;;;;;;;;4937789;29;19933;-68
2021/01/25 04:29:10;;;;;;;;;;;;;;;;;;4918660;29;20045;-67
2021/01/25 04:31:37;;;;;;;;;;;;;;;;;;4918459;29;19931;-68
2021/01/25 04:34:05;;;;;;;;;;;;;;;;;;4918063;29;20387;-67
2021/01/25 04:36:32;;;;;;;;;;;;;;;;;;4918173;29;19955;-68
2021/01/25 04:38:59;;;;;;;;;;;;;;;;;;4917361;29;20307;-67
2021/01/25 04:41:27;;;;;;;;;;;;;;;;;;4918895;29;20167;-68
2021/01/25 04:43:54;;;;;;;;;;;;;;;;;;4919560;29;19986;-66
2021/01/25 04:46:21;;;;;;;;;;;;;;;;;;4919328;29;19931;-67
2021/01/25 04:48:49;;;;;;;;;;;;;;;;;;4917959;29;20411;-67
2021/01/25 04:51:16;;;;;;;;;;;;;;;;;;4918350;29;20022;-68
2021/01/25 04:53:43;;;;;;;;;;;;;;;;;;4917746;29;20358;-67
2021/01/25 04:56:10;;;;;;;;;;;;;;;;;;4918211;29;20446;-67
2021/01/25 04:58:38;;;;;;;;;;;;;;;;;;4917411;29;20133;-68
2021/01/25 05:01:05;;;;;;;;;;;;;;;;;;4917815;29;20050;-67
2021/01/25 05:03:32;;;;;;;;;;;;;;;;;;4916639;29;19931;-67
2021/01/25 05:06:00;;;;;;;;;;;;;;;;;;4917447;29;20038;-68
2021/01/25 05:08:27;;;;;;;;;;;;;;;;;;4914396;29;19931;-68
2021/01/25 05:10:54;;;;;;;;;;;;;;;;;;4918270;29;19983;-67
2021/01/25 05:13:22;;;;;;;;;;;;;;;;;;4907001;29;19953;-67
2021/01/25 05:15:49;;;;;;;;;;;;;;;;;;4912654;29;19927;-67
2021/01/25 05:18:16;;;;;;;;;;;;;;;;;;4922444;29;20018;-67
2021/01/25 05:20:43;;;;;;;;;;;;;;;;;;4916823;29;19927;-67
2021/01/25 05:23:10;;;;;;;;;;;;;;;;;;4923659;29;19935;-68
2021/01/25 05:25:38;;;;;;;;;;;;;;;;;;4934348;29;19926;-67
2021/01/25 05:28:05;;;;;;;;;;;;;;;;;;4935074;29;19969;-67
2021/01/25 05:30:32;;;;;;;;;;;;;;;;;;4917530;29;19931;-67
2021/01/25 05:33:00;;;;;;;;;;;;;;;;;;4916976;29;19984;-68
2021/01/25 05:35:28;;;;;;;;;;;;;;;;;;4913817;29;19955;-67
2021/01/25 05:37:55;;;;;;;;;;;;;;;;;;4918770;29;20006;-67
2021/01/25 05:40:22;;;;;;;;;;;;;;;;;;4917316;29;19927;-67
2021/01/25 05:42:50;;;;;;;;;;;;;;;;;;4918900;29;20023;-67
2021/01/25 05:45:17;;;;;;;;;;;;;;;;;;4917593;29;19931;-67
2021/01/25 05:47:44;;;;;;;;;;;;;;;;;;4918133;29;19935;-68
2021/01/25 05:50:12;;;;;;;;;;;;;;;;;;4916968;29;20381;-67
2021/01/25 05:52:40;;;;;;;;;;;;;;;;;;4918031;29;20021;-68
2021/01/25 05:55:08;;;;;;;;;;;;;;;;;;4917525;29;19939;-67
2021/01/25 05:57:35;;;;;;;;;;;;;;;;;;4917114;29;20324;-66
2021/01/25 06:00:02;;;;;;;;;;;;;;;;;;4917681;29;20033;-67
2021/01/25 06:02:30;;;;;;;;;;;;;;;;;;4917593;29;19935;-67
2021/01/25 06:04:57;;;;;;;;;;;;;;;;;;4917033;29;19931;-67
2021/01/25 06:07:24;;;;;;;;;;;;;;;;;;4919647;29;19933;-67
2021/01/25 06:09:52;;;;;;;;;;;;;;;;;;4914287;29;20554;-67
2021/01/25 06:12:19;;;;;;;;;;;;;;;;;;4914309;29;20291;-66
2021/01/25 06:14:46;;;;;;;;;;;;;;;;;;4909606;29;19966;-67
2021/01/25 06:17:14;;;;;;;;;;;;;;;;;;4916152;29;19983;-66
2021/01/25 06:19:42;;;;;;;;;;;;;;;;;;4916050;29;20351;-68
2021/01/25 06:22:09;;;;;;;;;;;;;;;;;;4916752;29;20026;-68
2021/01/25 06:24:36;;;;;;;;;;;;;;;;;;4916727;29;19947;-66
2021/01/25 06:27:04;;;;;;;;;;;;;;;;;;4913482;29;19931;-67
2021/01/25 06:29:31;;;;;;;;;;;;;;;;;;4911814;29;19981;-66
2021/01/25 06:31:59;;;;;;;;;;;;;;;;;;4909688;29;20002;-68
2021/01/25 06:34:26;;;;;;;;;;;;;;;;;;4911416;29;20351;-68
2021/01/25 06:36:54;;;;;;;;;;;;;;;;;;4913419;29;20383;-67
2021/01/25 06:39:22;;;;;;;;;;;;;;;;;;4912458;29;19935;-65
2021/01/25 06:41:49;;;;;;;;;;;;;;;;;;4913328;29;19990;-66
2021/01/25 06:44:16;;;;;;;;;;;;;;;;;;4912677;29;20022;-68
2021/01/25 06:46:43;;;;;;;;;;;;;;;;;;4909429;29;19952;-66
2021/01/25 06:49:11;;;;;;;;;;;;;;;;;;4910250;29;19931;-67
2021/01/25 06:51:38;;;;;;;;;;;;;;;;;;4916774;29;19939;-67
2021/01/25 06:54:05;;;;;;;;;;;;;;;;;;4912136;29;19935;-67
2021/01/25 06:56:32;;;;;;;;;;;;;;;;;;4912802;29;19931;-67
2021/01/25 06:58:59;;;;;;;;;;;;;;;;;;4911126;29;20434;-67
2021/01/25 07:01:28;;;;;;;;;;;;;;;;;;4911721;29;20406;-68
2021/01/25 07:03:56;;;;;;;;;;;;;;;;;;4913893;29;19947;-67
2021/01/25 07:06:24;;;;;;;;;;;;;;;;;;4919586;29;20366;-67
2021/01/25 07:08:51;;;;;;;;;;;;;;;;;;4915018;29;19931;-68
2021/01/25 07:11:18;;;;;;;;;;;;;;;;;;4916253;29;19973;-67
2021/01/25 07:13:46;;;;;;;;;;;;;;;;;;4906972;29;19938;-67
2021/01/25 07:16:14;;;;;;;;;;;;;;;;;;4913659;29;20025;-68
2021/01/25 07:18:41;;;;;;;;;;;;;;;;;;4911461;29;19963;-67
2021/01/25 07:21:10;;;;;;;;;;;;;;;;;;4914519;29;20034;-67
2021/01/25 07:23:37;;;;;;;;;;;;;;;;;;4911791;29;19931;-67
2021/01/25 07:26:05;;;;;;;;;;;;;;;;;;4915491;29;19963;-67
2021/01/25 07:28:32;;;;;;;;;;;;;;;;;;4911182;29;19938;-67
2021/01/25 07:31:00;;;;;;;;;;;;;;;;;;4911761;29;19953;-67
2021/01/25 07:33:28;;;;;;;;;;;;;;;;;;4912224;29;19979;-66
2021/01/25 07:35:55;;;;;;;;;;;;;;;;;;4912160;29;20037;-67
2021/01/25 07:38:23;;;;;;;;;;;;;;;;;;4909878;29;19931;-66
2021/01/25 07:40:50;;;;;;;;;;;;;;;;;;4906970;29;19931;-67
2021/01/25 07:43:18;;;;;;;;;;;;;;;;;;4914207;29;19927;-66
2021/01/25 07:45:46;;;;;;;;;;;;;;;;;;4908965;29;19931;-66
2021/01/25 07:48:13;;;;;;;;;;;;;;;;;;4905235;29;20482;-66
2021/01/25 07:50:43;;;;;;;;;;;;;;;;;;4901604;29;20371;-67
2021/01/25 07:53:12;;;;;;;;;;;;;;;;;;4913815;29;19941;-67
2021/01/25 07:55:40;;;;;;;;;;;;;;;;;;4911725;29;19947;-67
2021/01/25 07:58:08;;;;;;;;;;;;;;;;;;4911952;29;19938;-67
2021/01/25 08:00:37;;;;;;;;;;;;;;;;;;4911202;29;19938;-66
2021/01/25 08:03:07;;;;;;;;;;;;;;;;;;4909490;29;19979;-67
2021/01/25 08:05:35;;;;;;;;;;;;;;;;;;4909488;29;19967;-67
2021/01/25 08:08:03;;;;;;;;;;;;;;;;;;4913196;29;20345;-67
2021/01/25 08:10:30;;;;;;;;;;;;;;;;;;4909378;29;19994;-68
2021/01/25 08:12:58;;;;;;;;;;;;;;;;;;4910229;29;19931;-67
2021/01/25 08:15:27;;;;;;;;;;;;;;;;;;4914887;29;19974;-67
2021/01/25 08:17:54;;;;;;;;;;;;;;;;;;4918062;29;20271;-67
2021/01/25 08:20:22;;;;;;;;;;;;;;;;;;4911515;29;19927;-68
2021/01/25 08:22:51;;;;;;;;;;;;;;;;;;4908991;29;19931;-67
2021/01/25 08:25:19;;;;;;;;;;;;;;;;;;4918589;29;19931;-68
2021/01/25 08:27:47;;;;;;;;;;;;;;;;;;4911285;29;19935;-68
2021/01/25 08:30:20;;;;;;;;;;;;;;;;;;4909768;29;19937;-67
2021/01/25 08:32:51;;;;;;;;;;;;;;;;;;4908611;29;19931;-68
2021/01/25 08:35:19;;;;;;;;;;;;;;;;;;4907004;29;20453;-69
2021/01/25 08:37:46;;;;;;;;;;;;;;;;;;4911737;29;20018;-68
2021/01/25 08:40:14;;;;;;;;;;;;;;;;;;4911035;29;20098;-68
2021/01/25 08:42:42;;;;;;;;;;;;;;;;;;4910232;29;19931;-66
2021/01/25 08:45:09;;;;;;;;;;;;;;;;;;4907382;29;20402;-67
2021/01/25 08:47:37;;;;;;;;;;;;;;;;;;4913759;29;19973;-68
2021/01/25 08:50:04;;;;;;;;;;;;;;;;;;4913315;29;19927;-67
2021/01/25 08:52:32;;;;;;;;;;;;;;;;;;4916121;29;19931;-67
2021/01/25 08:54:59;;;;;;;;;;;;;;;;;;4909458;29;19937;-67
2021/01/25 08:57:27;;;;;;;;;;;;;;;;;;4911838;29;19931;-68
2021/01/25 08:59:55;;;;;;;;;;;;;;;;;;4916852;29;19943;-68
2021/01/25 09:02:23;;;;;;;;;;;;;;;;;;4909761;29;19939;-67
2021/01/25 09:04:51;;;;;;;;;;;;;;;;;;4913718;29;20318;-68
2021/01/25 09:07:18;;;;;;;;;;;;;;;;;;4912918;29;19982;-68
2021/01/25 09:09:46;;;;;;;;;;;;;;;;;;4910319;29;19931;-68
2021/01/25 09:12:14;;;;;;;;;;;;;;;;;;4916409;29;19931;-68
2021/01/25 09:14:42;;;;;;;;;;;;;;;;;;4917703;29;19931;-68
2021/01/25 09:17:09;;;;;;;;;;;;;;;;;;4917712;29;20371;-68
2021/01/25 09:19:37;;;;;;;;;;;;;;;;;;4916370;29;19937;-68
2021/01/25 09:22:05;;;;;;;;;;;;;;;;;;4916454;29;19957;-68
2021/01/25 09:24:33;;;;;;;;;;;;;;;;;;4916536;29;19979;-68
2021/01/25 09:27:00;;;;;;;;;;;;;;;;;;4914464;29;19949;-68
2021/01/25 09:29:28;;;;;;;;;;;;;;;;;;4916753;29;20029;-68
2021/01/25 09:31:56;;;;;;;;;;;;;;;;;;4916868;29;20344;-67
2021/01/25 09:34:24;;;;;;;;;;;;;;;;;;4914298;29;19931;-68
2021/01/25 09:36:52;;;;;;;;;;;;;;;;;;4916497;29;19931;-68
2021/01/25 09:39:19;;;;;;;;;;;;;;;;;;4914159;29;19958;-68
2021/01/25 09:41:47;;;;;;;;;;;;;;;;;;4917452;29;19931;-67
2021/01/25 09:44:15;;;;;;;;;;;;;;;;;;4911654;29;20351;-67
2021/01/25 09:46:42;;;;;;;;;;;;;;;;;;4912128;29;20477;-67
2021/01/25 09:49:10;;;;;;;;;;;;;;;;;;4916583;29;20043;-68
2021/01/25 09:51:37;;;;;;;;;;;;;;;;;;4916498;29;19994;-67
2021/01/25 09:54:05;;;;;;;;;;;;;;;;;;4910653;29;19963;-67
2021/01/25 09:56:32;;;;;;;;;;;;;;;;;;4916935;29;19938;-68
2021/01/25 09:59:00;;;;;;;;;;;;;;;;;;4914951;29;20403;-67
2021/01/25 10:01:28;;;;;;;;;;;;;;;;;;4911011;29;19967;-68
2021/01/25 10:03:55;;;;;;;;;;;;;;;;;;4916279;29;19934;-68
2021/01/25 10:06:24;;;;;;;;;;;;;;;;;;4911667;29;20011;-68
2021/01/25 10:08:52;;;;;;;;;;;;;;;;;;4914655;29;20014;-67
2021/01/25 10:11:19;;;;;;;;;;;;;;;;;;4915071;29;20018;-67
2021/01/25 10:13:47;;;;;;;;;;;;;;;;;;4912808;29;19973;-67
2021/01/25 10:16:15;;;;;;;;;;;;;;;;;;4916692;29;20419;-67
2021/01/25 10:18:42;;;;;;;;;;;;;;;;;;4915010;29;19928;-68
2021/01/25 10:21:10;;;;;;;;;;;;;;;;;;4901778;29;19971;-68
2021/01/25 10:23:37;;;;;;;;;;;;;;;;;;4914573;29;20037;-67
2021/01/25 10:26:05;;;;;;;;;;;;;;;;;;4907977;29;20116;-67
2021/01/25 10:28:32;;;;;;;;;;;;;;;;;;4913816;29;19927;-67
2021/01/25 10:31:00;;;;;;;;;;;;;;;;;;4915343;29;19935;-66
2021/01/25 10:33:27;;;;;;;;;;;;;;;;;;4913992;29;19966;-66
2021/01/25 10:35:55;;;;;;;;;;;;;;;;;;4914461;29;19931;-67
2021/01/25 10:38:22;;;;;;;;;;;;;;;;;;4913054;29;20336;-67
2021/01/25 10:40:50;;;;;;;;;;;;;;;;;;4912650;29;19974;-67
2021/01/25 10:43:21;;;;;;;;;;;;;;;;;;4919140;29;19937;-67
2021/01/25 10:45:48;;;;;;;;;;;;;;;;;;4916191;29;19942;-67
2021/01/25 10:48:16;;;;;;;;;;;;;;;;;;4912771;29;20379;-67
2021/01/25 10:50:43;;;;;;;;;;;;;;;;;;4913608;29;20026;-66
2021/01/25 10:53:11;;;;;;;;;;;;;;;;;;4909238;29;20030;-66
2021/01/25 10:55:39;;;;;;;;;;;;;;;;;;4914642;29;19971;-67
2021/01/25 10:58:07;;;;;;;;;;;;;;;;;;4914183;29;19931;-67
2021/01/25 11:00:35;;;;;;;;;;;;;;;;;;4906665;29;19954;-67
2021/01/25 11:03:03;;;;;;;;;;;;;;;;;;4914595;29;20503;-67
2021/01/25 11:05:30;;;;;;;;;;;;;;;;;;4914939;29;19931;-67
2021/01/25 11:07:58;;;;;;;;;;;;;;;;;;4912340;29;19927;-67
2021/01/25 11:10:27;;;;;;;;;;;;;;;;;;4914039;29;20010;-67
2021/01/25 11:12:54;;;;;;;;;;;;;;;;;;4909014;29;19975;-67
2021/01/25 11:15:21;;;;;;;;;;;;;;;;;;4924981;29;19973;-67
2021/01/25 11:17:49;;;;;;;;;;;;;;;;;;4907276;29;19927;-67
2021/01/25 11:20:17;;;;;;;;;;;;;;;;;;4911845;29;20467;-67
2021/01/25 11:22:44;;;;;;;;;;;;;;;;;;4916298;29;20026;-66
2021/01/25 11:28:15;;;;;;;;;;;;;;;;;;4908792;29;20271;-67
2021/01/25 11:30:42;;;;;;;;;;;;;;;;;;4911986;29;20351;-67
2021/01/25 11:33:10;;;;;;;;;;;;;;;;;;4913953;29;20030;-67
2021/01/25 11:35:37;;;;;;;;;;;;;;;;;;4909147;29;19931;-67
2021/01/25 11:38:04;;;;;;;;;;;;;;;;;;4913749;29;20379;-66
2021/01/25 11:40:32;;;;;;;;;;;;;;;;;;4912425;29;20020;-68
2021/01/25 11:42:59;;;;;;;;;;;;;;;;;;4908577;29;19935;-67
2021/01/25 11:45:26;;;;;;;;;;;;;;;;;;4913685;29;19931;-68
2021/01/25 11:47:54;;;;;;;;;;;;;;;;;;4913975;29;19931;-67
2021/01/25 11:50:22;;;;;;;;;;;;;;;;;;4911420;29;19932;-68
2021/01/25 11:52:49;;;;;;;;;;;;;;;;;;4911738;29;19927;-67
2021/01/25 11:55:16;;;;;;;;;;;;;;;;;;4916278;29;20260;-67
2021/01/25 11:57:43;;;;;;;;;;;;;;;;;;4910687;29;20022;-67
2021/01/25 12:00:11;;;;;;;;;;;;;;;;;;4913695;29;19941;-68
2021/01/25 12:02:40;;;;;;;;;;;;;;;;;;4911742;29;20018;-67
2021/01/25 12:05:07;;;;;;;;;;;;;;;;;;4913190;29;19937;-68
2021/01/25 12:07:35;;;;;;;;;;;;;;;;;;4914358;29;19938;-67
2021/01/25 12:10:03;;;;;;;;;;;;;;;;;;4906744;29;20391;-67
2021/01/25 12:12:31;;;;;;;;;;;;;;;;;;4913157;29;19927;-68
2021/01/25 12:14:58;;;;;;;;;;;;;;;;;;4913852;29;19958;-68
2021/01/25 12:17:26;;;;;;;;;;;;;;;;;;4910092;29;19931;-67
2021/01/25 12:19:53;;;;;;;;;;;;;;;;;;4910925;29;20033;-68
2021/01/25 12:22:21;;;;;;;;;;;;;;;;;;4906547;29;19934;-68
2021/01/25 12:24:48;;;;;;;;;;;;;;;;;;4908557;29;20034;-68
2021/01/25 12:27:16;;;;;;;;;;;;;;;;;;4912775;29;19927;-68
2021/01/25 12:29:44;;;;;;;;;;;;;;;;;;4910026;29;19936;-68
2021/01/25 12:32:11;;;;;;;;;;;;;;;;;;4915177;29;19934;-68
2021/01/25 12:34:39;;;;;;;;;;;;;;;;;;4917339;29;20010;-68
2021/01/25 12:37:06;;;;;;;;;;;;;;;;;;4913564;29;20029;-68
2021/01/25 12:39:34;;;;;;;;;;;;;;;;;;4916470;29;20395;-68
2021/01/25 12:42:01;;;;;;;;;;;;;;;;;;4916576;29;20466;-68
2021/01/25 12:44:28;;;;;;;;;;;;;;;;;;4913498;29;19931;-68
2021/01/25 12:46:56;;;;;;;;;;;;;;;;;;4915106;29;19927;-68
2021/01/25 12:49:24;;;;;;;;;;;;;;;;;;4913643;29;20036;-67
2021/01/25 12:51:51;;;;;;;;;;;;;;;;;;4908915;29;20339;-67
2021/01/25 12:54:18;;;;;;;;;;;;;;;;;;4915678;29;19989;-67
2021/01/25 12:56:46;;;;;;;;;;;;;;;;;;4913683;29;19935;-68
2021/01/25 12:59:14;;;;;;;;;;;;;;;;;;4914561;29;20327;-68
2021/01/25 13:01:41;;;;;;;;;;;;;;;;;;4924815;29;19982;-68
2021/01/25 13:04:09;;;;;;;;;;;;;;;;;;4912963;29;20304;-67
2021/01/25 13:06:36;;;;;;;;;;;;;;;;;;4915899;29;19938;-67
2021/01/25 13:09:04;;;;;;;;;;;;;;;;;;4913621;29;19935;-68
2021/01/25 13:11:32;;;;;;;;;;;;;;;;;;4914469;29;19983;-68
2021/01/25 13:13:59;;;;;;;;;;;;;;;;;;4909996;29;19963;-68
2021/01/25 13:16:28;;;;;;;;;;;;;;;;;;4913518;29;19990;-68
2021/01/25 13:18:56;;;;;;;;;;;;;;;;;;4913443;29;20331;-68
2021/01/25 13:21:27;;;;;;;;;;;;;;;;;;4920771;29;19931;-68
2021/01/25 13:23:54;;;;;;;;;;;;;;;;;;4913473;29;19946;-69
2021/01/25 13:26:22;;;;;;;;;;;;;;;;;;4916804;29;19935;-69
2021/01/25 13:28:50;;;;;;;;;;;;;;;;;;4911110;29;19935;-69
2021/01/25 13:31:17;;;;;;;;;;;;;;;;;;4914273;29;19931;-69
2021/01/25 13:33:46;;;;;;;;;;;;;;;;;;4916276;29;19951;-69
2021/01/25 13:36:14;;;;;;;;;;;;;;;;;;4912905;29;19927;-70
2021/01/25 13:38:44;;;;;;;;;;;;;;;;;;4913797;29;19931;-68
2021/01/25 13:41:12;;;;;;;;;;;;;;;;;;4917210;29;19934;-66
2021/01/25 13:43:39;;;;;;;;;;;;;;;;;;4914864;29;20025;-67
2021/01/25 13:46:06;;;;;;;;;;;;;;;;;;4910268;29;20058;-67
2021/01/25 13:48:34;;;;;;;;;;;;;;;;;;4916757;29;19942;-67
2021/01/25 13:51:02;;;;;;;;;;;;;;;;;;4913579;29;19935;-67
2021/01/25 13:53:29;;;;;;;;;;;;;;;;;;4916816;29;20064;-67
2021/01/25 13:55:56;;;;;;;;;;;;;;;;;;4930240;29;19931;-67
2021/01/25 13:58:24;;;;;;;;;;;;;;;;;;4914323;29;20347;-67
2021/01/25 14:00:52;;;;;;;;;;;;;;;;;;4916442;29;19992;-67
2021/01/25 14:03:21;;;;;;;;;;;;;;;;;;4917331;29;19931;-67
2021/01/25 14:05:49;;;;;;;;;;;;;;;;;;4911536;29;19932;-66
2021/01/25 14:08:16;;;;;;;;;;;;;;;;;;4913470;29;19931;-66
2021/01/25 14:10:45;;;;;;;;;;;;;;;;;;4914448;29;19927;-66
2021/01/25 14:13:13;;;;;;;;;;;;;;;;;;4911988;29;20100;-66
2021/01/25 14:15:41;;;;;;;;;;;;;;;;;;4914072;29;19935;-66
2021/01/25 14:18:08;;;;;;;;;;;;;;;;;;4912898;29;19938;-66
2021/01/25 14:20:36;;;;;;;;;;;;;;;;;;4914785;29;19927;-66
2021/01/25 14:23:03;;;;;;;;;;;;;;;;;;4912913;29;20291;-66
2021/01/25 14:25:30;;;;;;;;;;;;;;;;;;4910582;29;19935;-66
2021/01/25 14:28:05;;;;;;;;;;;;;;;;;;4914247;29;20329;-66
2021/01/25 14:30:33;;;;;;;;;;;;;;;;;;4912417;29;19931;-66
2021/01/25 14:33:02;;;;;;;;;;;;;;;;;;4909193;29;19935;-66
2021/01/25 14:35:30;;;;;;;;;;;;;;;;;;4911837;29;19935;-66
2021/01/25 14:37:58;;;;;;;;;;;;;;;;;;4909179;29;19935;-66
2021/01/25 14:40:25;;;;;;;;;;;;;;;;;;4910706;29;19931;-66
2021/01/25 14:42:52;;;;;;;;;;;;;;;;;;4911808;29;19938;-66
2021/01/25 14:45:20;;;;;;;;;;;;;;;;;;4907602;29;20201;-66
2021/01/25 14:47:48;;;;;;;;;;;;;;;;;;4910959;29;19935;-66
2021/01/25 14:50:15;;;;;;;;;;;;;;;;;;4911003;29;19946;-66
2021/01/25 14:52:44;;;;;;;;;;;;;;;;;;4908287;29;20427;-66
2021/01/25 14:55:12;;;;;;;;;;;;;;;;;;4911201;29;19931;-66
2021/01/25 14:57:39;;;;;;;;;;;;;;;;;;4911388;29;20430;-67
2021/01/25 15:00:06;;;;;;;;;;;;;;;;;;4907997;29;20302;-66
2021/01/25 15:02:33;;;;;;;;;;;;;;;;;;4915802;29;20437;-66
2021/01/25 15:05:01;;;;;;;;;;;;;;;;;;4910949;29;19927;-66
2021/01/25 15:07:29;;;;;;;;;;;;;;;;;;4907631;29;19931;-66
2021/01/25 15:09:56;;;;;;;;;;;;;;;;;;4906414;29;20302;-67
2021/01/25 15:12:24;;;;;;;;;;;;;;;;;;4910518;29;20210;-67
2021/01/25 15:14:52;;;;;;;;;;;;;;;;;;4908170;29;20053;-67
2021/01/25 15:17:19;;;;;;;;;;;;;;;;;;4909741;29;20013;-67
2021/01/25 15:19:46;;;;;;;;;;;;;;;;;;4909361;29;19938;-67
2021/01/25 15:22:14;;;;;;;;;;;;;;;;;;4907258;29;19935;-67
2021/01/25 15:24:41;;;;;;;;;;;;;;;;;;4909406;29;19938;-67
2021/01/25 15:27:09;;;;;;;;;;;;;;;;;;4907254;29;19931;-67
2021/01/25 15:29:36;;;;;;;;;;;;;;;;;;4906519;29;19931;-67
2021/01/25 15:32:04;;;;;;;;;;;;;;;;;;4912323;29;19930;-66
2021/01/25 15:34:31;;;;;;;;;;;;;;;;;;4910653;29;19992;-67
2021/01/25 15:36:59;;;;;;;;;;;;;;;;;;4908900;29;19950;-66
2021/01/25 15:39:27;;;;;;;;;;;;;;;;;;4914730;29;20021;-67
2021/01/25 15:41:54;;;;;;;;;;;;;;;;;;4900628;29;19939;-67
2021/01/25 15:44:22;;;;;;;;;;;;;;;;;;4909326;29;19927;-67
2021/01/25 15:46:49;;;;;;;;;;;;;;;;;;4914633;29;19990;-67
2021/01/25 15:49:16;;;;;;;;;;;;;;;;;;4909016;29;19927;-66
2021/01/25 15:51:44;;;;;;;;;;;;;;;;;;4907047;29;19974;-68
2021/01/25 15:54:11;;;;;;;;;;;;;;;;;;4910462;29;19927;-68
2021/01/25 15:56:42;;;;;;;;;;;;;;;;;;4913174;29;20350;-67
2021/01/25 15:59:09;;;;;;;;;;;;;;;;;;4914097;29;20277;-67
2021/01/25 16:01:37;;;;;;;;;;;;;;;;;;4910764;29;19939;-68
2021/01/25 16:04:15;;;;;;;;;;;;;;;;;;2305965;29;10023075;-68
2021/01/25 16:06:43;;;;;;;;;;;;;;;;;;3216400;29;10001198;-67
2021/01/25 16:09:12;;;;;;;;;;;;;;;;;;4915941;29;19931;-67
2021/01/25 16:11:41;;;;;;;;;;;;;;;;;;4914513;29;20420;-67
2021/01/25 16:14:09;;;;;;;;;;;;;;;;;;4918017;29;20338;-68
2021/01/25 16:16:37;;;;;;;;;;;;;;;;;;4928096;29;19931;-68
2021/01/25 16:19:04;;;;;;;;;;;;;;;;;;4920314;29;19946;-68
2021/01/25 16:21:32;;;;;;;;;;;;;;;;;;4915554;29;19933;-68
2021/01/25 16:23:59;;;;;;;;;;;;;;;;;;4916874;29;19927;-68
2021/01/25 16:26:26;;;;;;;;;;;;;;;;;;4914446;29;19938;-68
2021/01/25 16:28:54;;;;;;;;;;;;;;;;;;4916438;29;19935;-67
2021/01/25 16:31:21;;;;;;;;;;;;;;;;;;4915798;29;19935;-67
2021/01/25 16:33:48;;;;;;;;;;;;;;;;;;4918764;29;19937;-67
2021/01/25 16:36:16;;;;;;;;;;;;;;;;;;4917096;29;19927;-67
2021/01/25 16:38:43;;;;;;;;;;;;;;;;;;4913737;29;20266;-67
2021/01/25 16:41:11;;;;;;;;;;;;;;;;;;4916873;29;19934;-67
2021/01/25 16:43:38;;;;;;;;;;;;;;;;;;4917103;29;19927;-67
2021/01/25 16:46:05;;;;;;;;;;;;;;;;;;4914059;29;19938;-68
2021/01/25 16:48:33;;;;;;;;;;;;;;;;;;4916262;29;19981;-68
2021/01/25 16:51:00;;;;;;;;;;;;;;;;;;4909067;29;20455;-68
2021/01/25 16:53:28;;;;;;;;;;;;;;;;;;4909871;29;20371;-68